AC5NH Weather Reports


Display with metric or nautical units.
time (UTC)temp
F
wind
direction
speed
MPH
gust
MPH
rain 1hr
in
rain 24hr
in
rain mn
in
humidity
%
barometer
mb
20190320033024 53 0.0 0.0 0.00 0.00 0.00 70 1023.4
20190320031542 54 0.0 0.0 0.00 0.00 0.00 69 1023.3
20190320030017 54 0.0 0.0 0.00 0.00 0.00 67 1023.1
20190320024505 55 0.0 0.0 0.00 0.00 0.00 66 1022.8
20190320023205 55 0.0 0.0 0.00 0.00 0.00 64 1022.8
20190320021723 56 0.0 0.0 0.00 0.00 0.00 63 1022.7
20190320020223 58 0.0 0.0 0.00 0.00 0.00 60 1022.6
20190320014707 58 0.0 0.0 0.00 0.00 0.00 58 1022.4
20190320013120 60 0.0 0.0 0.00 0.00 0.00 55 1022.4
20190320011559 62 0.0 0.0 0.00 0.00 0.00 49 1022.2
20190320010104 62 0.0 0.0 0.00 0.00 0.00 49 1022.1
20190320004609 63 0.0 0.0 0.00 0.00 0.00 49 1021.9
20190320003108 64 0.0 0.0 0.00 0.00 0.00 44 1021.8
20190320001540 65 0.0 0.0 0.00 0.00 0.00 44 1021.7
20190320000045 65 0.0 0.0 0.00 0.00 0.00 43 1021.6
20190319234538 66 0.0 0.0 0.00 0.00 0.00 45 1021.6
20190319233025 66 0.0 0.0 0.00 0.00 0.00 45 1021.7
20190319231509 67 0.0 0.0 0.00 0.00 0.00 43 1021.8
20190319230204 68 0.0 0.0 0.00 0.00 0.00 42 1021.7
20190319224708 68 0.0 0.0 0.00 0.00 0.00 41 1021.7
20190319223148 69 0.0 0.0 0.00 0.00 0.00 39 1021.8
20190319221626 69 0.0 0.0 0.00 0.00 0.00 38 1021.6
20190319220102 69 0.0 0.0 0.00 0.00 0.00 38 1021.6
20190319214648 69 0.0 0.0 0.00 0.00 0.00 37 1021.6
20190319213136 70 0.0 0.0 0.00 0.00 0.00 37 1021.7
20190319211546 70 0.0 0.0 0.00 0.00 0.00 37 1021.8
20190319210030 71 0.0 0.0 0.00 0.00 0.00 36 1021.8
20190319204525 71 0.0 0.0 0.00 0.00 0.00 36 1022.0
20190319203028 71 0.0 0.0 0.00 0.00 0.00 36 1022.2
20190319201515 70 0.0 0.0 0.00 0.00 0.00 36 1022.5
20190319200011 70 0.0 0.0 0.00 0.00 0.00 35 1022.7
20190319194502 71 0.0 0.0 0.00 0.00 0.00 37 1023.0
20190319193135 69 0.0 0.0 0.00 0.00 0.00 38 1023.3
20190319191720 70 0.0 0.0 0.00 0.00 0.00 38 1023.6
20190319190138 70 0.0 0.0 0.00 0.00 0.00 37 1023.9
20190319184709 70 0.0 0.0 0.00 0.00 0.00 37 1024.1
20190319183208 70 0.0 0.0 0.00 0.00 0.00 38 1024.5
20190319181625 70 0.0 0.0 0.00 0.00 0.00 40 1024.7
20190319180053 70 0.0 0.0 0.00 0.00 0.00 40 1025.1
20190319174551 70 0.0 0.0 0.00 0.00 0.00 41 1025.2
20190319173035 67 0.0 0.0 0.00 0.00 0.00 43 1025.3
20190319171552 67 0.0 0.0 0.00 0.00 0.00 41 1025.4
20190319170028 67 0.0 0.0 0.00 0.00 0.00 40 1025.5
20190319164527 69 0.0 0.0 0.00 0.00 0.00 39 1025.5
20190319163010 68 0.0 0.0 0.00 0.00 0.00 42 1025.4
20190319161503 67 0.0 0.0 0.00 0.00 0.00 43 1025.5
20190319160310 65 0.0 0.0 0.00 0.00 0.00 45 1025.6
20190319154637 64 0.0 0.0 0.00 0.00 0.00 47 1025.7
20190319153200 63 0.0 0.0 0.00 0.00 0.00 51 1025.6
20190319151624 61 0.0 0.0 0.00 0.00 0.00 57 1025.6
20190319150146 59 0.0 0.0 0.00 0.00 0.00 62 1025.4
20190319144622 57 0.0 0.0 0.00 0.00 0.00 64 1025.5
20190319143124 56 0.0 0.0 0.00 0.00 0.00 68 1025.5
20190319141555 54 0.0 0.0 0.00 0.00 0.00 73 1025.6
20190319140041 51 0.0 0.0 0.00 0.00 0.00 77 1025.4
20190319134545 51 0.0 0.0 0.00 0.00 0.00 79 1025.2
20190319133023 50 0.0 0.0 0.00 0.00 0.00 81 1025.1
20190319131518 49 0.0 0.0 0.00 0.00 0.00 83 1024.8
20190319130027 48 0.0 0.0 0.00 0.00 0.00 84 1024.7
20190319124721 48 0.0 0.0 0.00 0.00 0.00 85 1024.5
20190319123136 47 0.0 0.0 0.00 0.00 0.00 87 1024.4
20190319121635 47 0.0 0.0 0.00 0.00 0.00 87 1024.1
20190319120124 47 0.0 0.0 0.00 0.00 0.00 87 1024.1
20190319114633 47 0.0 0.0 0.00 0.00 0.00 87 1024.0
20190319113108 47 0.0 0.0 0.00 0.00 0.00 88 1023.9
20190319111631 48 0.0 0.0 0.00 0.00 0.00 88 1023.8
20190319110055 48 0.0 0.0 0.00 0.00 0.00 88 1023.7
20190319104530 47 0.0 0.0 0.00 0.00 0.00 88 1023.5
20190319103031 47 0.0 0.0 0.00 0.00 0.00 88 1023.3
20190319101527 47 0.0 0.0 0.00 0.00 0.00 88 1023.0
20190319100016 47 0.0 0.0 0.00 0.00 0.00 88 1023.0
20190319094510 47 0.0 0.0 0.00 0.00 0.00 88 1023.0
20190319093004 47 0.0 0.0 0.00 0.00 0.00 89 1022.9
20190319091620 47 0.0 0.0 0.00 0.00 0.00 88 1022.9
20190319090148 47 0.0 0.0 0.00 0.00 0.00 87 1022.9
20190319084739 47 0.0 0.0 0.00 0.00 0.00 86 1022.9
20190319083142 47 0.0 0.0 0.00 0.00 0.00 85 1022.9
20190319081617 47 0.0 0.0 0.00 0.00 0.00 84 1023.2
20190319080142 47 0.0 0.0 0.00 0.00 0.00 82 1023.2
20190319074556 47 0.0 0.0 0.00 0.00 0.00 81 1023.3
20190319073058 48 0.0 0.0 0.00 0.00 0.00 81 1023.4
20190319071608 48 0.0 0.0 0.00 0.00 0.00 80 1023.6
20190319070035 48 0.0 0.0 0.00 0.00 0.00 80 1023.7
20190319064542 49 0.0 0.0 0.00 0.00 0.00 79 1023.7
20190319063036 49 0.0 0.0 0.00 0.00 0.00 78 1023.7
20190319061533 49 0.0 0.0 0.00 0.00 0.00 77 1023.7
20190319060012 50 0.0 0.0 0.00 0.00 0.00 77 1023.9
20190319054702 50 0.0 0.0 0.00 0.00 0.00 76 1024.0
20190319053225 50 0.0 0.0 0.00 0.00 0.00 75 1024.0
20190319051625 50 0.0 0.0 0.00 0.00 0.00 74 1024.1
20190319050124 50 0.0 0.0 0.00 0.00 0.00 75 1024.3
20190319044722 50 0.0 0.0 0.00 0.00 0.00 75 1024.5
20190319043120 50 0.0 0.0 0.00 0.00 0.00 73 1024.5
20190319041622 51 0.0 0.0 0.00 0.00 0.00 71 1024.5
20190319040041 52 0.0 0.0 0.00 0.00 0.00 69 1024.5
20190319034600 52 0.0 0.0 0.00 0.00 0.00 68 1024.3